Time;durP1;ratioP1;P1;durP2;ratioP2;P2;SDS_P1;SDS_P2;PMS_P1;PMS_P2;Temp;Humidity;BMP_temperature;BMP_pressure;BME280_temperature;BME280_humidity;BME280_pressure;Samples;Min_cycle;Max_cycle;Signal;HPM_P1;HPM_P2
2022/04/03 00:02:07;;;;;;;37.88;14.38;;;;;;;;;;6268890;28;20053;-62
2022/04/03 00:05:08;;;;;;;32.78;12.88;;;;;;;;;;6265779;28;20131;-66
2022/04/03 00:08:10;;;;;;;47.95;16.08;;;;;;;;;;6266795;28;20071;-66
2022/04/03 00:11:11;;;;;;;42.27;16.50;;;;;;;;;;6266436;28;20416;-66
2022/04/03 00:14:11;;;;;;;50.28;16.73;;;;;;;;;;6266210;28;20095;-69
2022/04/03 00:17:12;;;;;;;35.40;13.43;;;;;;;;;;6267068;28;20072;-65
2022/04/03 00:20:13;;;;;;;38.55;14.43;;;;;;;;;;6267784;28;20044;-64
2022/04/03 00:23:14;;;;;;;39.03;12.13;;;;;;;;;;6265413;28;20500;-66
2022/04/03 00:26:15;;;;;;;36.78;13.25;;;;;;;;;;6264503;28;20057;-66
2022/04/03 00:29:15;;;;;;;53.55;17.63;;;;;;;;;;6265862;28;20142;-69
2022/04/03 00:32:16;;;;;;;63.60;19.13;;;;;;;;;;6268019;28;20387;-63
2022/04/03 00:35:16;;;;;;;43.10;16.88;;;;;;;;;;6265208;28;20521;-64
2022/04/03 00:38:18;;;;;;;40.80;14.93;;;;;;;;;;6265843;28;20587;-65
2022/04/03 00:41:20;;;;;;;27.63;10.77;;;;;;;;;;6266432;28;20391;-65
2022/04/03 00:44:23;;;;;;;28.35;11.23;;;;;;;;;;6265643;28;20080;-67
2022/04/03 00:47:23;;;;;;;27.00;11.18;;;;;;;;;;6264903;28;20056;-65
2022/04/03 00:50:25;;;;;;;32.88;12.60;;;;;;;;;;6265342;28;20049;-64
2022/04/03 00:53:25;;;;;;;26.92;12.80;;;;;;;;;;6265394;28;20519;-66
2022/04/03 00:56:26;;;;;;;26.73;12.38;;;;;;;;;;6265132;28;20075;-67
2022/04/03 00:59:27;;;;;;;28.02;12.00;;;;;;;;;;6262083;28;20052;-64
2022/04/03 01:02:28;;;;;;;30.30;12.63;;;;;;;;;;6265656;28;20488;-62
2022/04/03 01:05:29;;;;;;;34.75;14.43;;;;;;;;;;6256859;28;20083;-66
2022/04/03 01:08:29;;;;;;;29.65;13.48;;;;;;;;;;6266675;28;20056;-67
2022/04/03 01:11:31;;;;;;;31.08;14.65;;;;;;;;;;6264920;28;20072;-65
2022/04/03 01:14:37;;;;;;;41.22;15.25;;;;;;;;;;6266220;28;20064;-66
2022/04/03 01:17:37;;;;;;;34.03;15.23;;;;;;;;;;6257887;28;20036;-64
2022/04/03 01:20:38;;;;;;;27.73;13.63;;;;;;;;;;6265685;28;20049;-67
2022/04/03 01:23:39;;;;;;;27.33;12.48;;;;;;;;;;6264162;28;20175;-69
2022/04/03 01:26:39;;;;;;;34.95;12.95;;;;;;;;;;6263179;28;20049;-67
2022/04/03 01:29:40;;;;;;;34.13;12.77;;;;;;;;;;6265894;28;20571;-61
2022/04/03 01:32:41;;;;;;;31.83;13.68;;;;;;;;;;6264337;28;20109;-62
2022/04/03 01:35:42;;;;;;;32.50;13.48;;;;;;;;;;6262626;28;20136;-69
2022/04/03 01:38:43;;;;;;;31.13;13.00;;;;;;;;;;6264760;28;20483;-68
2022/04/03 01:41:44;;;;;;;28.13;12.38;;;;;;;;;;6265424;28;20045;-65
2022/04/03 01:44:44;;;;;;;36.40;12.68;;;;;;;;;;6264423;28;20049;-67
2022/04/03 01:47:45;;;;;;;29.73;11.50;;;;;;;;;;6264494;28;20072;-64
2022/04/03 01:50:46;;;;;;;32.28;12.80;;;;;;;;;;6263978;28;20045;-65
2022/04/03 01:53:47;;;;;;;29.67;11.60;;;;;;;;;;6264125;28;20088;-65
2022/04/03 01:56:47;;;;;;;28.63;12.93;;;;;;;;;;6263928;28;20051;-65
2022/04/03 01:59:48;;;;;;;27.83;11.75;;;;;;;;;;6266625;28;20136;-64
2022/04/03 02:02:50;;;;;;;28.40;11.45;;;;;;;;;;6264465;28;20060;-64
2022/04/03 02:05:51;;;;;;;25.90;10.95;;;;;;;;;;6262435;28;20116;-67
2022/04/03 02:08:51;;;;;;;29.55;11.38;;;;;;;;;;6264492;28;20105;-65
2022/04/03 02:11:52;;;;;;;29.02;10.63;;;;;;;;;;6262249;28;20060;-63
2022/04/03 02:14:52;;;;;;;24.30;12.18;;;;;;;;;;6261041;28;20140;-64
2022/04/03 02:17:53;;;;;;;27.55;11.60;;;;;;;;;;6263140;28;20139;-67
2022/04/03 02:20:54;;;;;;;27.10;12.00;;;;;;;;;;6261406;28;20045;-63
2022/04/03 02:23:54;;;;;;;29.67;12.07;;;;;;;;;;6262156;28;20566;-64
2022/04/03 02:26:55;;;;;;;23.80;11.75;;;;;;;;;;6261612;28;20056;-63
2022/04/03 02:29:55;;;;;;;27.80;13.10;;;;;;;;;;6264442;28;20080;-66
2022/04/03 02:32:56;;;;;;;22.40;11.88;;;;;;;;;;6264956;28;20044;-68
2022/04/03 02:35:57;;;;;;;26.77;11.85;;;;;;;;;;6260257;28;20136;-65
2022/04/03 02:38:57;;;;;;;25.42;12.30;;;;;;;;;;6265745;28;20045;-66
2022/04/03 02:41:58;;;;;;;26.02;11.63;;;;;;;;;;6267245;28;20045;-67
2022/04/03 02:44:59;;;;;;;25.00;12.77;;;;;;;;;;6266498;28;20051;-64
2022/04/03 02:47:59;;;;;;;29.33;12.80;;;;;;;;;;6230888;28;1110374;-67
2022/04/03 02:51:01;;;;;;;25.58;12.20;;;;;;;;;;6269757;28;20077;-64
2022/04/03 02:54:02;;;;;;;26.33;12.18;;;;;;;;;;6267857;28;20049;-67
2022/04/03 02:57:03;;;;;;;25.65;12.10;;;;;;;;;;6267160;28;20496;-66
2022/04/03 03:00:06;;;;;;;28.23;12.45;;;;;;;;;;6268412;28;20041;-62
2022/04/03 03:03:07;;;;;;;24.60;11.63;;;;;;;;;;6266688;28;20123;-62
2022/04/03 03:06:08;;;;;;;26.35;11.43;;;;;;;;;;6265173;28;20052;-68
2022/04/03 03:09:09;;;;;;;24.02;11.48;;;;;;;;;;6266417;28;20041;-68
2022/04/03 03:12:10;;;;;;;28.52;12.13;;;;;;;;;;6267279;28;20059;-65
2022/04/03 03:15:11;;;;;;;21.83;11.03;;;;;;;;;;6266916;28;20049;-63
2022/04/03 03:18:12;;;;;;;31.58;12.18;;;;;;;;;;6268624;28;20444;-62
2022/04/03 03:21:13;;;;;;;25.45;11.13;;;;;;;;;;6268460;28;20041;-67
2022/04/03 03:24:13;;;;;;;24.98;11.07;;;;;;;;;;6267788;28;20183;-66
2022/04/03 03:27:14;;;;;;;27.33;10.95;;;;;;;;;;6265539;28;20045;-62
2022/04/03 03:30:15;;;;;;;28.88;10.55;;;;;;;;;;6265649;28;20607;-65
2022/04/03 03:33:16;;;;;;;29.93;10.93;;;;;;;;;;6268632;28;20083;-64
2022/04/03 03:36:16;;;;;;;40.05;12.93;;;;;;;;;;6266746;28;20501;-66
2022/04/03 03:39:17;;;;;;;33.30;11.23;;;;;;;;;;6267082;28;20065;-63
2022/04/03 03:42:18;;;;;;;30.77;10.20;;;;;;;;;;6269084;28;20499;-67
2022/04/03 03:45:18;;;;;;;26.75;8.88;;;;;;;;;;6267020;28;20068;-68
2022/04/03 03:48:19;;;;;;;26.02;8.75;;;;;;;;;;6267630;28;20156;-68
2022/04/03 03:51:20;;;;;;;35.30;10.65;;;;;;;;;;6267001;28;20049;-67
2022/04/03 03:54:20;;;;;;;28.05;9.77;;;;;;;;;;6266576;28;20067;-68
2022/04/03 03:57:22;;;;;;;37.08;11.25;;;;;;;;;;6265276;28;20087;-67
2022/04/03 04:00:22;;;;;;;31.73;10.68;;;;;;;;;;6266874;28;20045;-62
2022/04/03 04:03:23;;;;;;;28.27;9.75;;;;;;;;;;6265581;28;20057;-64
2022/04/03 04:06:23;;;;;;;21.63;8.38;;;;;;;;;;6264276;28;20131;-65
2022/04/03 04:09:24;;;;;;;22.05;8.80;;;;;;;;;;6261263;28;20132;-67
2022/04/03 04:12:25;;;;;;;26.15;9.93;;;;;;;;;;6266983;28;20102;-67
2022/04/03 04:15:27;;;;;;;24.25;9.07;;;;;;;;;;6264600;28;20443;-68
2022/04/03 04:18:28;;;;;;;18.75;8.60;;;;;;;;;;6260780;28;20060;-67
2022/04/03 04:21:30;;;;;;;27.95;10.38;;;;;;;;;;6258955;28;20077;-67
2022/04/03 04:24:31;;;;;;;26.00;9.98;;;;;;;;;;6258293;28;20639;-66
2022/04/03 04:27:31;;;;;;;33.72;12.52;;;;;;;;;;6268029;28;20041;-68
2022/04/03 04:30:32;;;;;;;33.60;11.18;;;;;;;;;;6264652;28;20179;-68
2022/04/03 04:33:33;;;;;;;28.35;10.32;;;;;;;;;;6266740;28;20079;-69
2022/04/03 04:36:33;;;;;;;21.63;10.55;;;;;;;;;;6266445;28;20043;-67
2022/04/03 04:39:34;;;;;;;37.35;11.77;;;;;;;;;;6266100;28;20419;-65
2022/04/03 04:42:35;;;;;;;31.33;11.55;;;;;;;;;;6263895;28;20135;-67
2022/04/03 04:45:36;;;;;;;22.20;10.70;;;;;;;;;;6260362;28;20065;-68
2022/04/03 04:48:36;;;;;;;33.63;11.63;;;;;;;;;;6261506;28;20162;-66
2022/04/03 04:51:37;;;;;;;26.38;10.48;;;;;;;;;;6265653;28;20064;-68
2022/04/03 04:54:38;;;;;;;27.70;10.98;;;;;;;;;;6262100;28;20102;-69
2022/04/03 04:57:39;;;;;;;26.92;10.10;;;;;;;;;;6265810;28;20486;-67
2022/04/03 05:00:40;;;;;;;28.73;10.63;;;;;;;;;;6264676;28;20052;-65
2022/04/03 05:03:40;;;;;;;27.27;10.65;;;;;;;;;;6265270;28;20147;-68
2022/04/03 05:06:42;;;;;;;19.40;9.55;;;;;;;;;;6258796;28;20124;-64
2022/04/03 05:09:44;;;;;;;28.30;10.48;;;;;;;;;;6263295;28;20084;-63
2022/04/03 05:12:45;;;;;;;26.75;11.10;;;;;;;;;;6262729;28;20123;-64
2022/04/03 05:15:46;;;;;;;31.88;10.93;;;;;;;;;;6265444;28;20741;-68
2022/04/03 05:18:47;;;;;;;25.88;10.68;;;;;;;;;;6265244;28;20052;-65
2022/04/03 05:21:47;;;;;;;31.27;11.27;;;;;;;;;;6261524;28;20626;-65
2022/04/03 05:24:48;;;;;;;32.40;10.65;;;;;;;;;;6259916;28;20045;-68
2022/04/03 05:27:49;;;;;;;30.00;10.88;;;;;;;;;;6259742;28;20049;-67
2022/04/03 05:30:49;;;;;;;27.45;11.63;;;;;;;;;;6263592;28;20115;-67
2022/04/03 05:33:50;;;;;;;29.98;12.00;;;;;;;;;;6261765;28;20502;-67
2022/04/03 05:36:51;;;;;;;29.67;12.15;;;;;;;;;;6263102;28;20065;-64
2022/04/03 05:39:52;;;;;;;25.13;10.93;;;;;;;;;;6262100;28;20589;-65
2022/04/03 05:42:53;;;;;;;29.48;10.45;;;;;;;;;;6261981;28;20055;-61
2022/04/03 05:45:53;;;;;;;32.50;12.38;;;;;;;;;;6261234;28;20499;-62
2022/04/03 05:48:54;;;;;;;26.17;11.57;;;;;;;;;;6262693;28;20238;-63
2022/04/03 05:51:55;;;;;;;28.15;11.10;;;;;;;;;;6260025;28;20407;-61
2022/04/03 05:54:55;;;;;;;28.90;11.15;;;;;;;;;;6261414;28;20135;-63
2022/04/03 05:57:56;;;;;;;29.70;11.63;;;;;;;;;;6263510;28;20480;-61
2022/04/03 06:00:57;;;;;;;27.42;11.63;;;;;;;;;;6261991;28;20033;-62
2022/04/03 06:03:57;;;;;;;29.92;11.50;;;;;;;;;;6262560;28;20045;-63
2022/04/03 06:06:58;;;;;;;31.45;11.43;;;;;;;;;;6266138;28;20480;-65
2022/04/03 06:09:59;;;;;;;30.23;10.63;;;;;;;;;;6265907;28;20040;-61
2022/04/03 06:13:07;;;;;;;35.50;12.82;;;;;;;;;;6266548;28;20060;-62
2022/04/03 06:16:08;;;;;;;30.10;12.10;;;;;;;;;;6265646;28;20045;-61
2022/04/03 06:19:08;;;;;;;37.70;13.63;;;;;;;;;;6267540;28;20850;-67
2022/04/03 06:22:09;;;;;;;33.58;13.13;;;;;;;;;;6267461;28;20396;-65
2022/04/03 06:25:10;;;;;;;29.08;12.10;;;;;;;;;;6265320;28;20056;-65
2022/04/03 06:28:11;;;;;;;33.17;12.20;;;;;;;;;;6267685;28;20063;-62
2022/04/03 06:31:12;;;;;;;30.67;12.23;;;;;;;;;;6263332;28;20072;-61
2022/04/03 06:34:12;;;;;;;30.38;11.35;;;;;;;;;;6259021;28;20091;-58
2022/04/03 06:37:13;;;;;;;27.92;10.43;;;;;;;;;;6265092;28;20195;-63
2022/04/03 06:40:14;;;;;;;33.70;12.60;;;;;;;;;;6263000;28;20049;-58
2022/04/03 06:43:22;;;;;;;37.22;13.02;;;;;;;;;;6260904;28;20052;-71
2022/04/03 06:46:23;;;;;;;30.85;11.75;;;;;;;;;;6263990;28;20069;-61
2022/04/03 06:49:23;;;;;;;29.50;10.98;;;;;;;;;;6263189;28;20113;-59
2022/04/03 06:52:24;;;;;;;27.35;11.77;;;;;;;;;;6264669;28;20060;-64
2022/04/03 06:55:24;;;;;;;32.47;12.43;;;;;;;;;;6262262;28;20084;-68
2022/04/03 06:58:25;;;;;;;28.45;12.18;;;;;;;;;;6264845;28;20056;-62
2022/04/03 07:01:26;;;;;;;31.55;12.45;;;;;;;;;;6264270;28;20091;-63
2022/04/03 07:04:26;;;;;;;28.83;13.82;;;;;;;;;;6262006;28;20052;-64
2022/04/03 07:07:27;;;;;;;29.65;11.77;;;;;;;;;;6263423;28;20139;-64
2022/04/03 07:10:28;;;;;;;33.67;14.65;;;;;;;;;;6263731;28;20045;-67
2022/04/03 07:13:29;;;;;;;29.17;11.90;;;;;;;;;;6262930;28;20489;-67
2022/04/03 07:16:29;;;;;;;26.17;11.90;;;;;;;;;;6259672;28;20065;-63
2022/04/03 07:19:30;;;;;;;30.30;11.90;;;;;;;;;;6264686;28;20069;-61
2022/04/03 07:22:31;;;;;;;31.65;12.23;;;;;;;;;;6263744;28;20049;-61
2022/04/03 07:25:31;;;;;;;27.52;12.30;;;;;;;;;;6265465;28;20596;-63
2022/04/03 07:28:32;;;;;;;34.03;13.77;;;;;;;;;;6269023;28;20793;-63
2022/04/03 07:31:33;;;;;;;33.10;13.50;;;;;;;;;;6264883;28;20136;-64
2022/04/03 07:34:33;;;;;;;34.85;12.63;;;;;;;;;;6267051;28;20077;-64
2022/04/03 07:37:34;;;;;;;34.30;12.80;;;;;;;;;;6267065;28;20078;-66
2022/04/03 07:40:35;;;;;;;32.67;12.63;;;;;;;;;;6268009;28;20064;-65
2022/04/03 07:43:35;;;;;;;33.90;12.68;;;;;;;;;;6266581;28;20116;-64
2022/04/03 07:46:36;;;;;;;32.70;13.85;;;;;;;;;;6266803;28;20041;-67
2022/04/03 07:49:37;;;;;;;29.23;12.70;;;;;;;;;;6269988;28;20132;-65
2022/04/03 07:52:38;;;;;;;29.92;13.55;;;;;;;;;;6246664;28;20037;-62
2022/04/03 07:55:38;;;;;;;30.77;12.18;;;;;;;;;;6267216;28;20143;-59
2022/04/03 07:58:39;;;;;;;28.65;11.93;;;;;;;;;;6270228;28;20052;-68
2022/04/03 08:01:39;;;;;;;35.50;14.15;;;;;;;;;;6269566;28;20063;-66
2022/04/03 08:04:40;;;;;;;37.00;13.77;;;;;;;;;;6267701;28;20040;-62
2022/04/03 08:07:46;;;;;;;33.72;13.77;;;;;;;;;;6270354;28;20118;-68
2022/04/03 08:10:47;;;;;;;27.25;12.27;;;;;;;;;;6270207;28;20040;-64
2022/04/03 08:13:48;;;;;;;35.25;13.98;;;;;;;;;;6268114;28;20515;-68
2022/04/03 08:16:49;;;;;;;32.22;13.45;;;;;;;;;;6265227;28;20045;-67
2022/04/03 08:19:49;;;;;;;36.50;13.52;;;;;;;;;;6268486;28;20535;-66
2022/04/03 08:22:50;;;;;;;23.20;10.55;;;;;;;;;;6267544;28;20049;-64
2022/04/03 08:25:51;;;;;;;28.13;11.65;;;;;;;;;;6268122;28;20515;-63
2022/04/03 08:28:55;;;;;;;22.70;10.80;;;;;;;;;;6268639;28;20437;-60
2022/04/03 08:31:56;;;;;;;25.00;10.98;;;;;;;;;;6267447;28;20045;-64
2022/04/03 08:34:56;;;;;;;25.40;10.73;;;;;;;;;;6266699;28;20453;-63
2022/04/03 08:37:58;;;;;;;25.45;10.20;;;;;;;;;;6266216;28;20448;-63
2022/04/03 08:41:01;;;;;;;29.38;11.73;;;;;;;;;;6267956;28;20055;-63
2022/04/03 08:44:02;;;;;;;67.20;17.05;;;;;;;;;;6265743;28;20384;-65
2022/04/03 08:47:06;;;;;;;75.90;20.90;;;;;;;;;;6266514;28;20056;-64
2022/04/03 08:50:07;;;;;;;26.20;10.18;;;;;;;;;;6267610;28;20049;-63
2022/04/03 08:53:08;;;;;;;26.15;9.75;;;;;;;;;;6267003;28;20091;-64
2022/04/03 08:56:09;;;;;;;72.55;17.35;;;;;;;;;;6265481;28;20055;-65
2022/04/03 08:59:10;;;;;;;44.53;13.02;;;;;;;;;;6268435;28;20083;-66
2022/04/03 09:02:13;;;;;;;46.58;13.00;;;;;;;;;;6267982;28;20502;-66
2022/04/03 09:05:14;;;;;;;61.65;16.65;;;;;;;;;;6266897;28;20052;-66
2022/04/03 09:08:15;;;;;;;42.47;12.17;;;;;;;;;;6266270;28;20496;-65
2022/04/03 09:11:16;;;;;;;21.67;8.88;;;;;;;;;;6267044;28;20098;-62
2022/04/03 09:14:19;;;;;;;17.95;7.72;;;;;;;;;;6265467;28;20500;-65
2022/04/03 09:17:44;;;;;;;22.83;8.95;;;;;;;;;;6264440;28;20045;-64
2022/04/03 09:20:45;;;;;;;26.20;10.05;;;;;;;;;;6253685;28;20071;-61
2022/04/03 09:24:07;;;;;;;52.90;14.05;;;;;;;;;;6266942;28;20496;-66
2022/04/03 09:27:07;;;;;;;18.98;7.30;;;;;;;;;;6263593;28;20040;-67
2022/04/03 09:30:08;;;;;;;27.02;9.10;;;;;;;;;;6267131;28;20041;-65
2022/04/03 09:33:11;;;;;;;33.63;9.30;;;;;;;;;;6266622;28;20092;-67
2022/04/03 09:36:12;;;;;;;37.65;11.73;;;;;;;;;;6258552;28;20044;-67
2022/04/03 09:39:16;;;;;;;35.63;11.68;;;;;;;;;;6266060;28;21349;-66
2022/04/03 09:42:17;;;;;;;28.35;9.57;;;;;;;;;;6267196;28;20513;-67
2022/04/03 09:45:24;;;;;;;30.13;10.98;;;;;;;;;;6261776;28;20142;-68
2022/04/03 09:48:29;;;;;;;19.88;7.82;;;;;;;;;;6258822;28;20053;-67
2022/04/03 09:51:30;;;;;;;22.33;7.05;;;;;;;;;;6263070;28;20083;-66
2022/04/03 09:54:31;;;;;;;19.30;8.30;;;;;;;;;;6260618;28;20507;-66
2022/04/03 09:57:32;;;;;;;21.27;8.65;;;;;;;;;;6262054;28;20053;-68
2022/04/03 10:00:41;;;;;;;23.90;9.15;;;;;;;;;;6263796;28;20374;-61
2022/04/03 10:03:42;;;;;;;21.90;9.05;;;;;;;;;;6257070;28;20057;-65
2022/04/03 10:06:43;;;;;;;27.25;9.55;;;;;;;;;;6261537;28;20052;-65
2022/04/03 10:09:48;;;;;;;35.88;12.00;;;;;;;;;;6262928;28;20049;-63
2022/04/03 10:12:49;;;;;;;20.55;8.52;;;;;;;;;;6261167;28;20416;-65
2022/04/03 10:15:51;;;;;;;32.72;10.85;;;;;;;;;;6237317;28;20139;-68
2022/04/03 10:18:52;;;;;;;29.67;10.77;;;;;;;;;;6239751;28;20114;-66
2022/04/03 10:21:56;;;;;;;21.40;8.93;;;;;;;;;;6243541;28;20436;-66
2022/04/03 10:25:02;;;;;;;26.30;10.38;;;;;;;;;;6239456;28;20036;-65
2022/04/03 10:28:05;;;;;;;35.15;11.93;;;;;;;;;;6243710;28;20054;-67
2022/04/03 10:31:07;;;;;;;25.70;9.85;;;;;;;;;;6239525;28;20049;-67
2022/04/03 10:34:12;;;;;;;24.63;9.50;;;;;;;;;;6235663;28;20049;-68
2022/04/03 10:37:38;;;;;;;23.23;9.30;;;;;;;;;;6240816;28;20168;-65
2022/04/03 10:40:38;;;;;;;20.23;10.07;;;;;;;;;;6242865;28;20057;-65
2022/04/03 10:43:40;;;;;;;18.85;8.32;;;;;;;;;;6242640;28;20709;-66
2022/04/03 10:47:02;;;;;;;24.55;10.40;;;;;;;;;;6244140;28;20119;-63
2022/04/03 10:50:05;;;;;;;22.10;9.35;;;;;;;;;;6241101;28;20397;-66
2022/04/03 10:53:22;;;;;;;23.88;9.57;;;;;;;;;;6238225;28;20066;-64
2022/04/03 10:56:28;;;;;;;23.95;8.95;;;;;;;;;;6242872;28;20500;-67
2022/04/03 10:59:28;;;;;;;26.40;9.35;;;;;;;;;;6247052;28;20128;-65
2022/04/03 11:02:29;;;;;;;23.98;9.00;;;;;;;;;;6244890;28;20564;-67
2022/04/03 11:05:30;;;;;;;28.13;10.00;;;;;;;;;;6250198;28;20302;-61
2022/04/03 11:08:53;;;;;;;27.23;10.73;;;;;;;;;;6247073;28;20115;-67
2022/04/03 11:11:56;;;;;;;23.33;9.00;;;;;;;;;;6246011;28;20136;-65
2022/04/03 11:14:57;;;;;;;20.55;8.82;;;;;;;;;;6242391;28;20112;-63
2022/04/03 11:17:58;;;;;;;27.60;10.07;;;;;;;;;;6244284;28;20071;-62
2022/04/03 11:21:25;;;;;;;30.38;10.90;;;;;;;;;;6248110;28;20045;-63
2022/04/03 11:24:26;;;;;;;26.02;9.80;;;;;;;;;;6244002;28;20059;-62
2022/04/03 11:27:27;;;;;;;35.85;11.20;;;;;;;;;;6243354;28;20047;-67
2022/04/03 11:30:29;;;;;;;29.98;9.55;;;;;;;;;;6245407;28;20053;-60
2022/04/03 11:33:30;;;;;;;23.95;9.50;;;;;;;;;;6244960;28;20127;-68
2022/04/03 11:36:32;;;;;;;24.23;9.98;;;;;;;;;;6248369;28;20072;-66
2022/04/03 11:39:35;;;;;;;20.80;10.00;;;;;;;;;;6243512;28;20046;-66
2022/04/03 11:42:36;;;;;;;31.40;11.77;;;;;;;;;;6249785;28;20364;-65
2022/04/03 11:45:37;;;;;;;20.55;8.85;;;;;;;;;;6249826;28;20733;-65
2022/04/03 11:48:47;;;;;;;23.10;11.38;;;;;;;;;;6245014;28;20077;-68
2022/04/03 11:51:58;;;;;;;28.95;11.35;;;;;;;;;;6242924;28;20059;-64
2022/04/03 11:54:58;;;;;;;24.58;9.50;;;;;;;;;;6254115;28;20037;-62
2022/04/03 11:58:00;;;;;;;20.42;8.88;;;;;;;;;;6243051;28;20092;-65
2022/04/03 12:01:01;;;;;;;20.42;8.90;;;;;;;;;;6256078;28;20053;-64
2022/04/03 12:04:10;;;;;;;18.48;9.35;;;;;;;;;;6247574;28;20045;-63
2022/04/03 12:07:14;;;;;;;58.20;15.65;;;;;;;;;;6244688;28;20083;-63
2022/04/03 12:10:24;;;;;;;22.55;8.57;;;;;;;;;;6250615;28;20193;-60
2022/04/03 12:13:25;;;;;;;22.75;8.85;;;;;;;;;;6245246;28;20056;-63
2022/04/03 12:16:28;;;;;;;22.13;8.73;;;;;;;;;;6247685;28;20043;-66
2022/04/03 12:19:33;;;;;;;21.25;8.48;;;;;;;;;;6246815;28;20066;-59
2022/04/03 12:22:34;;;;;;;22.02;8.95;;;;;;;;;;6245686;28;20115;-65
2022/04/03 12:25:35;;;;;;;20.30;9.02;;;;;;;;;;6245388;28;20135;-63
2022/04/03 12:28:36;;;;;;;20.73;9.65;;;;;;;;;;6251268;28;20072;-62
2022/04/03 12:31:37;;;;;;;23.95;10.70;;;;;;;;;;6247728;28;20587;-59
2022/04/03 12:34:50;;;;;;;25.38;9.45;;;;;;;;;;6242991;28;20520;-59
2022/04/03 12:37:51;;;;;;;24.40;10.18;;;;;;;;;;6245208;28;20164;-60
2022/04/03 12:40:55;;;;;;;21.50;9.02;;;;;;;;;;6248328;28;20053;-60
2022/04/03 12:43:56;;;;;;;20.25;9.50;;;;;;;;;;6242364;28;20488;-63
2022/04/03 12:46:57;;;;;;;20.85;10.30;;;;;;;;;;6245641;28;20049;-60
2022/04/03 12:50:06;;;;;;;27.85;11.57;;;;;;;;;;6241711;28;20043;-59
2022/04/03 12:53:15;;;;;;;26.65;11.43;;;;;;;;;;6241452;28;20060;-61
2022/04/03 12:56:16;;;;;;;28.25;12.35;;;;;;;;;;6244519;28;20477;-65
2022/04/03 12:59:20;;;;;;;19.70;8.98;;;;;;;;;;6241588;28;20057;-59
2022/04/03 13:02:36;;;;;;;19.70;9.20;;;;;;;;;;6248284;28;20040;-59
2022/04/03 13:05:38;;;;;;;24.05;10.07;;;;;;;;;;6244714;28;20073;-67
2022/04/03 13:09:00;;;;;;;;;;;;;;;;;;6250205;28;20061;-67
2022/04/03 13:12:01;;;;;;;27.92;9.18;;;;;;;;;;6237640;28;19936;-65
2022/04/03 13:15:02;;;;;;;23.83;9.90;;;;;;;;;;6243662;28;20412;-61
2022/04/03 13:18:03;;;;;;;27.37;11.10;;;;;;;;;;6246634;28;20087;-68
2022/04/03 13:21:03;;;;;;;31.00;12.15;;;;;;;;;;6244555;28;20131;-60
2022/04/03 13:24:05;;;;;;;26.40;10.80;;;;;;;;;;6245296;28;20068;-62
2022/04/03 13:27:06;;;;;;;29.83;11.27;;;;;;;;;;6242000;28;20049;-62
2022/04/03 13:30:07;;;;;;;28.10;12.40;;;;;;;;;;6245193;28;20074;-65
2022/04/03 13:33:07;;;;;;;33.38;12.52;;;;;;;;;;6241948;28;20049;-66
2022/04/03 13:36:08;;;;;;;30.42;12.52;;;;;;;;;;6249167;28;20479;-66
2022/04/03 13:39:10;;;;;;;26.67;13.35;;;;;;;;;;6248035;28;20060;-66
2022/04/03 13:42:13;;;;;;;42.35;14.95;;;;;;;;;;6240728;28;20055;-61
2022/04/03 13:45:13;;;;;;;34.72;13.07;;;;;;;;;;6242408;28;20057;-67
2022/04/03 13:48:14;;;;;;;48.83;17.42;;;;;;;;;;6248362;28;20139;-67
2022/04/03 13:51:15;;;;;;;33.10;13.50;;;;;;;;;;6246293;28;20429;-61
2022/04/03 13:54:16;;;;;;;29.90;11.98;;;;;;;;;;6240849;28;20053;-60
2022/04/03 13:57:16;;;;;;;19.60;10.18;;;;;;;;;;6245476;28;20172;-66
2022/04/03 14:00:17;;;;;;;24.50;9.85;;;;;;;;;;6242525;28;20053;-62
2022/04/03 14:03:20;;;;;;;22.52;10.68;;;;;;;;;;6243007;28;20045;-63
2022/04/03 14:06:21;;;;;;;18.20;9.90;;;;;;;;;;6245875;28;20122;-67
2022/04/03 14:09:22;;;;;;;28.55;10.95;;;;;;;;;;6247263;28;20126;-63
2022/04/03 14:12:23;;;;;;;23.75;10.30;;;;;;;;;;6242919;28;20041;-67
2022/04/03 14:15:26;;;;;;;24.25;11.55;;;;;;;;;;6243528;28;20045;-61
2022/04/03 14:18:27;;;;;;;28.95;12.20;;;;;;;;;;6240986;28;20533;-62
2022/04/03 14:21:29;;;;;;;24.00;11.27;;;;;;;;;;6246985;28;20404;-66
2022/04/03 14:24:30;;;;;;;31.23;12.20;;;;;;;;;;6241938;28;20057;-66
2022/04/03 14:27:31;;;;;;;29.70;12.23;;;;;;;;;;6245189;28;20124;-69
2022/04/03 14:30:32;;;;;;;29.70;12.00;;;;;;;;;;6245573;28;20054;-67
2022/04/03 14:33:33;;;;;;;30.55;13.02;;;;;;;;;;6240325;28;20049;-61
2022/04/03 14:36:34;;;;;;;29.75;11.80;;;;;;;;;;6251003;28;20488;-68
2022/04/03 14:39:34;;;;;;;28.60;11.07;;;;;;;;;;6249295;28;20049;-69
2022/04/03 14:42:35;;;;;;;28.95;10.93;;;;;;;;;;6240710;28;20099;-64
2022/04/03 14:45:37;;;;;;;28.83;10.63;;;;;;;;;;6244415;28;20045;-59
2022/04/03 14:48:38;;;;;;;26.20;10.50;;;;;;;;;;6245335;28;20647;-65
2022/04/03 14:51:39;;;;;;;26.90;10.30;;;;;;;;;;6244666;28;20493;-67
2022/04/03 14:54:40;;;;;;;24.00;9.90;;;;;;;;;;6245795;28;20054;-62
2022/04/03 14:57:41;;;;;;;28.70;10.10;;;;;;;;;;6247228;28;20041;-68
2022/04/03 15:00:45;;;;;;;22.83;10.25;;;;;;;;;;6245165;28;20063;-68
2022/04/03 15:03:45;;;;;;;25.13;10.55;;;;;;;;;;6244938;28;20053;-66
2022/04/03 15:06:46;;;;;;;27.10;11.32;;;;;;;;;;6247551;28;20142;-67
2022/04/03 15:09:47;;;;;;;29.08;10.68;;;;;;;;;;6248970;28;20519;-63
2022/04/03 15:12:49;;;;;;;24.65;10.55;;;;;;;;;;6244020;28;20088;-65
2022/04/03 15:15:49;;;;;;;26.88;10.80;;;;;;;;;;6246625;28;20068;-67
2022/04/03 15:18:50;;;;;;;22.02;10.90;;;;;;;;;;6247938;28;20045;-69
2022/04/03 15:21:51;;;;;;;28.75;11.95;;;;;;;;;;6247723;28;20045;-68
2022/04/03 15:24:52;;;;;;;28.20;11.15;;;;;;;;;;6246063;28;20046;-66
2022/04/03 15:27:53;;;;;;;28.92;12.20;;;;;;;;;;6247288;28;20575;-67
2022/04/03 15:30:54;;;;;;;27.23;10.77;;;;;;;;;;6244172;28;20137;-64
2022/04/03 15:33:54;;;;;;;24.13;9.95;;;;;;;;;;6242157;28;20432;-67
2022/04/03 15:36:55;;;;;;;23.15;9.10;;;;;;;;;;6245297;28;20132;-67
2022/04/03 15:39:56;;;;;;;23.77;9.90;;;;;;;;;;6248648;28;20048;-64
2022/04/03 15:42:57;;;;;;;24.73;9.07;;;;;;;;;;6246232;28;20053;-67
2022/04/03 15:45:58;;;;;;;21.80;10.05;;;;;;;;;;6250303;28;20539;-68
2022/04/03 15:48:59;;;;;;;22.02;9.23;;;;;;;;;;6247224;28;20497;-66
2022/04/03 15:51:59;;;;;;;27.48;11.38;;;;;;;;;;6246218;28;20191;-70
2022/04/03 15:55:04;;;;;;;25.40;10.02;;;;;;;;;;6242167;28;20103;-68
2022/04/03 15:58:05;;;;;;;25.38;11.27;;;;;;;;;;6245489;28;20089;-69
2022/04/03 16:01:05;;;;;;;27.13;9.15;;;;;;;;;;6246574;28;20063;-70
2022/04/03 16:04:07;;;;;;;20.35;8.80;;;;;;;;;;6246674;28;21489;-69
2022/04/03 16:07:08;;;;;;;16.93;8.17;;;;;;;;;;6248063;28;20180;-69
2022/04/03 16:10:26;;;;;;;16.85;7.57;;;;;;;;;;6247734;28;20103;-71
2022/04/03 16:13:28;;;;;;;22.65;10.57;;;;;;;;;;6244740;28;20060;-66
2022/04/03 16:16:29;;;;;;;22.27;9.40;;;;;;;;;;6246345;28;20049;-71
2022/04/03 16:19:29;;;;;;;23.40;9.15;;;;;;;;;;6247517;28;20938;-67
2022/04/03 16:22:30;;;;;;;18.80;8.82;;;;;;;;;;6242067;28;20072;-66
2022/04/03 16:25:31;;;;;;;24.38;9.73;;;;;;;;;;6246073;28;20508;-64
2022/04/03 16:28:31;;;;;;;27.73;9.68;;;;;;;;;;6244745;28;20145;-66
2022/04/03 16:31:33;;;;;;;19.55;8.27;;;;;;;;;;6246561;28;20037;-66
2022/04/03 16:34:34;;;;;;;28.75;9.40;;;;;;;;;;6240762;28;20600;-65
2022/04/03 16:37:36;;;;;;;27.97;8.10;;;;;;;;;;6246439;28;20575;-67
2022/04/03 16:40:37;;;;;;;15.32;7.55;;;;;;;;;;6245752;28;20048;-65
2022/04/03 16:43:37;;;;;;;22.23;8.93;;;;;;;;;;6241800;28;20056;-63
2022/04/03 16:46:38;;;;;;;20.45;8.32;;;;;;;;;;6244302;28;20045;-62
2022/04/03 16:49:39;;;;;;;22.58;8.95;;;;;;;;;;6245172;28;20063;-66
2022/04/03 16:52:39;;;;;;;29.55;9.27;;;;;;;;;;6240479;28;20091;-64
2022/04/03 16:55:41;;;;;;;28.60;9.77;;;;;;;;;;6244904;28;20088;-62
2022/04/03 16:58:41;;;;;;;22.45;8.18;;;;;;;;;;6242173;28;20698;-63
2022/04/03 17:01:43;;;;;;;19.33;8.20;;;;;;;;;;6243626;28;20053;-62
2022/04/03 17:04:43;;;;;;;25.70;10.23;;;;;;;;;;6240911;28;20037;-58
2022/04/03 17:07:44;;;;;;;19.58;8.80;;;;;;;;;;6245075;28;20135;-62
2022/04/03 17:10:46;;;;;;;19.35;8.27;;;;;;;;;;6244494;28;20053;-64
2022/04/03 17:13:47;;;;;;;19.10;8.30;;;;;;;;;;6241838;28;20057;-63
2022/04/03 17:16:47;;;;;;;16.63;7.28;;;;;;;;;;6242226;28;20060;-64
2022/04/03 17:19:48;;;;;;;18.08;8.02;;;;;;;;;;6243752;28;20454;-62
2022/04/03 17:22:50;;;;;;;18.95;8.15;;;;;;;;;;6239653;28;20103;-63
2022/04/03 17:25:52;;;;;;;;;;;;;;;;;;6245649;28;20044;-63
2022/04/03 17:28:54;;;;;;;22.42;8.85;;;;;;;;;;6245070;28;19995;-65
2022/04/03 17:31:54;;;;;;;23.02;8.75;;;;;;;;;;6238657;28;20494;-62
2022/04/03 17:34:56;;;;;;;27.38;10.63;;;;;;;;;;6244005;28;20041;-64
2022/04/03 17:37:57;;;;;;;21.95;10.18;;;;;;;;;;6243298;28;20136;-64
2022/04/03 17:40:58;;;;;;;26.33;11.43;;;;;;;;;;6243780;28;20385;-65
2022/04/03 17:44:03;;;;;;;25.77;9.00;;;;;;;;;;6241255;28;20044;-60